NCAR-RAP Real-Time Weather Data

Output produced by METARs form (08 May 2021  15:39 UTC)
found at http://weather.rap.ucar.edu/surface/
 
KBUF 081454Z 29005KT 10SM FEW012 FEW080 BKN200 10/03 A2992 RMK AO2 SLP136 T01000028 51010 $
KBUF 081415Z VRB04KT 10SM SCT010 BKN080 BKN200 09/04 A2992 RMK AO2 T00890039 $
KBUF 081354Z 32006KT 10SM BKN010 BKN080 BKN200 08/04 A2992 RMK AO2 SLP136 T00780039 $
KBUF 081254Z 32006KT 10SM OVC008 06/04 A2990 RMK AO2 SLP131 T00610044 $
KBUF 081231Z 29007KT 8SM BKN008 BKN040 06/04 A2990 RMK AO2 T00610044 $
KBUF 081154Z 00000KT 10SM FEW010 BKN040 BKN065 06/04 A2989 RMK AO2 SLP126 7//// T00610044 10061 20044 53010 $
KBUF 081054Z 35003KT 9SM BKN035 BKN060 BKN200 06/04 A2988 RMK AO2 SLP121 T00560039 $
KBUF 080954Z 00000KT 10SM BKN035 05/03 A2986 RMK AO2 SLP116 T00500033 $
KBUF 080854Z 33004KT 10SM FEW015 BKN025 04/03 A2986 RMK AO2 SLP116 T00440033 58003 $
KBUF 080754Z 29003KT 10SM FEW015 BKN025 06/04 A2987 RMK AO2 SLP118 T00610039 $
KBUF 080654Z 29004KT 10SM FEW015 OVC025 06/04 A2986 RMK AO2 SLP118 T00560044 $
KBUF 080554Z 29004KT 10SM FEW015 BKN025 06/04 A2987 RMK AO2 SLP119 T00560044 10072 20050 58011 $
KBUF 080454Z 00000KT 10SM BKN025 06/04 A2988 RMK AO2 SLP123 T00560044 400890050 $
KBUF 080354Z 17005KT 10SM BKN015 BKN027 06/04 A2989 RMK AO2 SLP128 T00560044 $
KBUF 080344Z 16006KT 10SM BKN017 BKN027 06/04 A2990 RMK AO2 T00560044 $
KBUF 080254Z 11003KT 10SM FEW017 SCT027 SCT070 06/04 A2990 RMK AO2 SLPNO T00560039 58004 $
KBUF 080212Z 14003KT 10SM FEW015 SCT025 SCT070 06/04 A2991 RMK AO2 T00610039 $
KBUF 080154Z 13004KT 10SM BKN015 BKN026 BKN070 07/04 A2991 RMK AO2 SLP134 T00670039 $
KBUF 080113Z 12003KT 10SM BKN017 OVC029 07/04 A2991 RMK AO2 T00670044 $
KBUF 080054Z 00000KT 10SM FEW017 BKN034 BKN160 07/04 A2992 RMK AO2 SLP135 T00670044 $
KBUF 072354Z 12005KT 10SM FEW020 FEW030 FEW160 07/04 A2991 RMK AO2 SLP134 60007 T00720039 10072 20061 58003 $
KBUF 072339Z 11006KT 10SM FEW020 SCT033 SCT140 BKN260 07/04 A2991 RMK AO2 T00720044 $
KBUF 072254Z 08004KT 10SM SCT018 BKN028 BKN080 07/04 A2992 RMK AO2 SLP137 T00720039 $
KBUF 072154Z 10005KT 10SM SCT008 BKN018 OVC080 07/04 A2992 RMK AO2 SLP137 T00720039 $
KBUF 072054Z 03007KT 10SM SCT008 OVC018 07/04 A2992 RMK AO2 RAE10 SLP137 P0001 60007 T00670044 56001 $
KBUF 071954Z 01005KT 9SM -RA BKN008 BKN018 OVC031 07/05 A2992 RMK AO2 SLP137 P0003 T00720050 $
KBUF 071854Z 35007KT 10SM -RA BKN008 BKN016 OVC029 07/05 A2992 RMK AO2 SLP138 P0003 T00670050 $
KBUF 071754Z 36007KT 8SM -RA BKN008 BKN016 OVC029 07/05 A2993 RMK AO2 SLP138 P0002 6//// T00720050 10072 20056 $
KBUF 071654Z 36005KT 10SM -RA SCT008 BKN016 OVC031 07/05 A2994 RMK AO2 SLP141 P0000 T00670050 $
KBUF 071554Z 03006KT 9SM -RA FEW008 SCT014 OVC029 07/03 A2995 RMK AO2 SLP145 P0002 T00670033 $
KBUF 071454Z 05005KT 7SM -RA SCT008 BKN014 OVC029 07/03 A2996 RMK AO2 SLP148 P0001 6//// T00670033 $
KBUF 071452Z 05006KT 7SM -RA SCT008 BKN014 OVC029 07/03 A2996 RMK AO2 P0001 $
KBUF 071354Z 06005KT 7SM -RA SCT008 SCT014 OVC027 06/04 A2997 RMK AO2 SLP151 P0004 T00610039 $
KBUF 071326Z 04004KT 8SM -RA BKN008 BKN027 OVC035 06/04 A2997 RMK AO2 P0002 T00610039
KBUF 071313Z 05005KT 9SM -RA SCT008 BKN027 OVC035 06/03 A2997 RMK AO2 P0001 T00610033
KBUF 071254Z 06005KT 10SM -RA FEW008 FEW027 OVC035 06/03 A2997 RMK AO2 SLP152 P0001 T00610033
KBUF 071250Z 06005KT 10SM -RA FEW008 FEW027 OVC035 06/03 A2997 RMK AO2 P0001
KBUF 071154Z 04006KT 10SM -RA OVC030 06/03 A2997 RMK AO2 SLP151 P0002 60046 70054 T00560033 10061 20050 55000 $
KBUF 071054Z 05004KT 10SM -RA OVC030 05/03 A2997 RMK AO2 SLP152 P0002 T00500028 $
KBUF 070954Z 02006KT 10SM -RA OVC030 05/03 A2996 RMK AO2 SLP149 P0008 T00500028 $
KBUF 070854Z COR 04007KT 7SM -RA OVC030 05/03 A2997 RMK AO2 SLP152 P0012 60034 T00500033 56012 $
KBUF 070754Z 09004KT 6SM RA BR OVC030 06/03 A2998 RMK AO2 SLP155 P0010 T00560033 $
KBUF 070654Z 06004KT 9SM RA OVC035 06/03 A2999 RMK AO2 SLP158 P0012 T00560028 $
KBUF 070554Z 35008KT 7SM RA OVC035 06/03 A3000 RMK AO2 SLP164 P0008 60008 T00610033 10100 20061 55000 $
KBUF 070454Z 30007KT 10SM -RA OVC050 09/02 A2999 RMK AO2 RAB51 SLP160 P0000 T00890017 401220033 $
KBUF 070354Z 24007KT 10SM BKN055 OVC080 09/02 A3000 RMK AO2 SLP161 T00890017 $
KBUF 070254Z 22007KT 10SM BKN065 OVC110 09/M01 A3001 RMK AO2 SLP164 T00941006 58003 $
KBUF 070154Z 23007KT 10SM BKN085 BKN130 09/M01 A3002 RMK AO2 SLP168 T00941011 $
KBUF 070054Z 23006KT 10SM BKN090 BKN140 09/M03 A3002 RMK AO2 SLP168 T00941028 $
KBUF 062354Z 24008KT 10SM FEW055 FEW090 FEW160 10/M04 A3001 RMK AO2 SLP167 T01001044 10122 20100 53001 $
KBUF 062254Z 23010KT 10SM FEW050 FEW095 FEW280 11/M04 A3001 RMK AO2 SLP166 T01061039 $
KBUF 062154Z 26010KT 10SM FEW055 FEW100 FEW280 11/M02 A3001 RMK AO2 SLP165 T01111022 $
KBUF 062054Z 24009KT 10SM SCT035 SCT055 BKN220 12/M01 A3001 RMK AO2 SLP166 T01171006 57018 $
KBUF 061954Z 23008KT 210V270 10SM FEW035 FEW055 BKN220 12/01 A3003 RMK AO2 SLP172 T01170011 $
KBUF 061854Z 25013KT 10SM FEW032 SCT055 BKN250 BKN300 11/03 A3005 RMK AO2 SLP179 T01110033 $
KBUF 061754Z 24011KT 10SM FEW032 SCT055 BKN250 BKN300 11/03 A3006 RMK AO2 SLP185 T01110028 10117 20061 58007 $
KBUF 061656Z 25011KT 10SM SCT032 SCT060 SCT120 SCT250 12/03 A3007 RMK AO2 T01170028 $
KBUF 061654Z 25012KT 10SM SCT029 SCT070 SCT120 SCT250 12/03 A3007 RMK AO2 SLP186 T01170028 $
KBUF 061554Z VRB05KT 10SM SCT029 SCT070 SCT120 SCT250 11/03 A3008 RMK AO2 SLP189 T01060033 $
KBUF 061542Z 23009KT 10SM SCT029 SCT120 SCT180 SCT250 11/03 A3008 RMK AO2 T01060033 $